createdAt,value
2018-12-10T00:01:20.828Z,44.44
2018-12-10T00:03:46.810Z,44.47
2018-12-10T00:06:13.780Z,44.53
2018-12-10T00:08:39.735Z,44.05
2018-12-10T00:11:05.743Z,44.38
2018-12-10T00:13:31.714Z,44.02
2018-12-10T00:15:57.670Z,44.24
2018-12-10T00:18:23.613Z,43.93
2018-12-10T00:20:49.579Z,44.63
2018-12-10T00:23:15.567Z,43.76
2018-12-10T00:25:41.540Z,43.75
2018-12-10T00:28:07.483Z,43.59
2018-12-10T00:30:33.479Z,43.41
2018-12-10T00:32:59.436Z,44.02
2018-12-10T00:35:25.416Z,43.67
2018-12-10T00:37:51.375Z,43.40
2018-12-10T00:40:17.349Z,43.75
2018-12-10T00:42:43.378Z,43.37
2018-12-10T00:45:09.423Z,43.81
2018-12-10T00:47:35.369Z,43.90
2018-12-10T00:50:01.317Z,44.58
2018-12-10T00:52:27.257Z,44.20
2018-12-10T00:54:53.195Z,44.79
2018-12-10T00:57:19.161Z,45.04
2018-12-10T00:59:45.123Z,45.52
2018-12-10T01:02:11.103Z,46.44
2018-12-10T01:04:37.059Z,46.15
2018-12-10T01:07:03.048Z,45.86
2018-12-10T01:09:29.001Z,46.04
2018-12-10T01:11:54.991Z,45.38
2018-12-10T01:14:20.939Z,45.47
2018-12-10T01:16:46.939Z,44.95
2018-12-10T01:19:13.008Z,44.55
2018-12-10T01:21:39.084Z,45.17
2018-12-10T01:24:05.036Z,45.48
2018-12-10T01:26:30.988Z,46.08
2018-12-10T01:28:56.929Z,45.61
2018-12-10T01:31:22.902Z,45.24
2018-12-10T01:33:48.844Z,45.39
2018-12-10T01:36:14.787Z,45.48
2018-12-10T01:38:40.751Z,45.18
2018-12-10T01:41:06.706Z,45.18
2018-12-10T01:43:32.644Z,44.90
2018-12-10T01:45:58.601Z,44.51
2018-12-10T01:48:24.541Z,45.08
2018-12-10T01:50:50.476Z,45.37
2018-12-10T01:53:16.408Z,44.82
2018-12-10T01:55:42.488Z,45.07
2018-12-10T01:58:08.535Z,44.31
2018-12-10T02:00:34.509Z,44.21
2018-12-10T02:03:00.495Z,44.37
2018-12-10T02:05:26.432Z,44.11
2018-12-10T02:07:52.405Z,43.27
2018-12-10T02:10:18.369Z,43.62
2018-12-10T02:12:44.343Z,43.16
2018-12-10T02:17:42.780Z,42.80
2018-12-10T02:20:08.756Z,43.27
2018-12-10T02:22:34.727Z,43.35
2018-12-10T02:25:00.683Z,44.10
2018-12-10T02:27:26.654Z,43.89
2018-12-10T02:29:52.623Z,43.56
2018-12-10T02:32:18.581Z,42.83
2018-12-10T02:34:44.735Z,43.42
2018-12-10T02:37:10.981Z,44.24
2018-12-10T02:39:36.923Z,43.96
2018-12-10T02:42:02.863Z,43.63
2018-12-10T02:44:28.804Z,44.06
2018-12-10T02:46:54.746Z,43.71
2018-12-10T02:49:20.676Z,44.31
2018-12-10T02:51:46.636Z,44.07
2018-12-10T02:54:12.601Z,43.86
2018-12-10T02:56:38.571Z,44.62
2018-12-10T02:59:04.537Z,45.50
2018-12-10T03:01:30.501Z,45.06
2018-12-10T03:03:56.463Z,46.29
2018-12-10T03:06:22.436Z,46.04
2018-12-10T03:08:48.377Z,46.66
2018-12-10T03:11:15.049Z,45.91
2018-12-10T03:13:41.031Z,45.99
2018-12-10T03:16:07.007Z,46.48
2018-12-10T03:18:32.971Z,46.07
2018-12-10T03:20:59.011Z,46.25
2018-12-10T03:23:25.033Z,45.84
2018-12-10T03:25:51.008Z,45.77
2018-12-10T03:28:17.069Z,45.42
2018-12-10T03:30:43.069Z,46.79
2018-12-10T03:33:09.175Z,47.02
2018-12-10T03:35:35.127Z,47.12
2018-12-10T03:38:01.095Z,48.05
2018-12-10T03:40:27.081Z,47.70
2018-12-10T03:42:53.100Z,48.24
2018-12-10T03:45:19.135Z,47.61
2018-12-10T03:47:45.139Z,47.16
2018-12-10T03:50:11.086Z,47.99
2018-12-10T03:52:37.053Z,48.40
2018-12-10T03:55:03.012Z,48.96
2018-12-10T03:57:28.954Z,48.60
2018-12-10T03:59:54.911Z,49.24
2018-12-10T04:02:20.878Z,49.22
2018-12-10T04:04:46.837Z,49.05
2018-12-10T04:07:13.862Z,49.09
2018-12-10T04:09:39.827Z,48.39
2018-12-10T04:12:06.266Z,49.68
2018-12-10T04:14:32.291Z,48.21
2018-12-10T04:16:58.249Z,48.49
2018-12-10T04:19:24.192Z,49.19
2018-12-10T04:21:50.139Z,48.43
2018-12-10T04:24:16.180Z,47.93
2018-12-10T04:26:42.206Z,47.46
2018-12-10T04:29:08.189Z,48.85
2018-12-10T04:31:36.289Z,48.81
2018-12-10T04:34:02.184Z,48.64
2018-12-10T04:38:59.626Z,48.63
2018-12-10T04:43:58.087Z,49.16
2018-12-10T04:46:24.144Z,48.79
2018-12-10T04:48:52.181Z,48.46
2018-12-10T04:51:18.238Z,49.24
2018-12-10T04:53:44.216Z,49.53
2018-12-10T04:56:10.202Z,49.90
2018-12-10T04:58:36.227Z,49.72
2018-12-10T05:01:02.277Z,48.73
2018-12-10T05:03:28.266Z,48.40
2018-12-10T05:06:02.025Z,48.10
2018-12-10T05:08:31.422Z,46.92
2018-12-10T05:10:57.389Z,48.02
2018-12-10T05:13:23.392Z,47.63
2018-12-10T05:15:49.416Z,48.69
2018-12-10T05:18:15.451Z,47.87
2018-12-10T05:20:41.429Z,47.23
2018-12-10T05:23:07.397Z,47.72
2018-12-10T05:25:33.448Z,50.37
2018-12-10T05:27:59.456Z,49.29
2018-12-10T05:30:25.395Z,49.44
2018-12-10T05:35:32.193Z,50.12
2018-12-10T05:37:58.150Z,50.50
2018-12-10T05:40:24.097Z,49.96
2018-12-10T05:42:50.052Z,49.55
2018-12-10T05:45:15.995Z,49.59
2018-12-10T05:47:42.785Z,48.25
2018-12-10T05:50:08.760Z,47.68
2018-12-10T05:52:34.709Z,48.16
2018-12-10T05:55:00.668Z,49.27
2018-12-10T05:57:26.615Z,49.29
2018-12-10T05:59:52.603Z,49.72
2018-12-10T06:02:18.574Z,48.83
2018-12-10T06:04:44.552Z,48.11
2018-12-10T06:07:10.516Z,48.55
2018-12-10T06:09:36.462Z,48.11
2018-12-10T06:12:02.429Z,47.24
2018-12-10T06:14:28.381Z,47.16
2018-12-10T06:16:54.316Z,47.26
2018-12-10T06:19:20.281Z,48.39
2018-12-10T06:21:46.234Z,48.41
2018-12-10T06:24:12.199Z,48.67
2018-12-10T06:26:38.940Z,48.92
2018-12-10T06:29:04.879Z,48.10
2018-12-10T06:31:30.836Z,48.16
2018-12-10T06:33:56.801Z,48.56
2018-12-10T06:36:22.830Z,48.00
2018-12-10T06:38:48.791Z,48.27
2018-12-10T06:41:14.748Z,48.02
2018-12-10T06:43:40.711Z,48.32
2018-12-10T06:46:07.508Z,48.57
2018-12-10T06:48:33.468Z,48.25
2018-12-10T06:50:59.424Z,48.47
2018-12-10T06:53:25.977Z,48.46
2018-12-10T06:55:51.953Z,49.04
2018-12-10T06:58:17.911Z,48.29
2018-12-10T07:00:43.874Z,47.46
2018-12-10T07:03:10.691Z,48.68
2018-12-10T07:05:36.664Z,48.45
2018-12-10T07:08:02.617Z,48.17
2018-12-10T07:10:28.587Z,48.35
2018-12-10T07:12:54.543Z,48.22
2018-12-10T07:15:20.486Z,48.12
2018-12-10T07:17:46.457Z,48.16
2018-12-10T07:20:12.422Z,48.39
2018-12-10T07:22:38.385Z,48.93
2018-12-10T07:25:04.340Z,48.35
2018-12-10T07:27:30.290Z,48.78
2018-12-10T07:29:56.275Z,49.16
2018-12-10T07:32:22.220Z,49.79
2018-12-10T07:34:48.163Z,49.94
2018-12-10T07:37:14.149Z,49.51
2018-12-10T07:39:40.090Z,48.52
2018-12-10T07:42:06.032Z,47.63
2018-12-10T07:44:32.007Z,48.25
2018-12-10T07:46:58.981Z,48.12
2018-12-10T07:49:24.924Z,48.85
2018-12-10T07:51:50.864Z,47.49
2018-12-10T07:54:16.815Z,48.72
2018-12-10T07:56:42.772Z,49.06
2018-12-10T07:59:08.760Z,47.95
2018-12-10T08:01:34.730Z,47.52
2018-12-10T08:04:00.700Z,47.37
2018-12-10T08:06:26.644Z,48.41
2018-12-10T08:08:52.589Z,47.55
2018-12-10T08:11:18.545Z,47.87
2018-12-10T08:13:44.516Z,47.83
2018-12-10T08:16:10.492Z,47.67
2018-12-10T08:18:36.457Z,47.17
2018-12-10T08:21:02.728Z,47.62
2018-12-10T08:23:28.785Z,46.76
2018-12-10T08:25:54.917Z,47.15
2018-12-10T08:28:20.872Z,47.19
2018-12-10T08:30:46.819Z,46.80
2018-12-10T08:33:12.782Z,46.73
2018-12-10T08:35:40.901Z,47.17
2018-12-10T08:38:06.750Z,46.25
2018-12-10T08:40:32.715Z,46.69
2018-12-10T08:42:58.688Z,46.38
2018-12-10T08:45:24.629Z,47.04
2018-12-10T08:47:50.710Z,46.90
2018-12-10T08:50:16.673Z,47.00
2018-12-10T08:52:42.675Z,47.50
2018-12-10T08:55:08.650Z,47.48
2018-12-10T08:57:34.664Z,47.90
2018-12-10T09:00:00.628Z,47.41
2018-12-10T09:02:26.617Z,48.13
2018-12-10T09:04:52.551Z,48.33
2018-12-10T09:07:18.522Z,49.40
2018-12-10T09:09:44.453Z,47.85
2018-12-10T09:12:10.438Z,47.03
2018-12-10T09:14:36.372Z,47.72
2018-12-10T09:17:02.447Z,47.32
2018-12-10T09:19:28.449Z,47.69
2018-12-10T09:21:54.467Z,47.19
2018-12-10T09:24:20.438Z,47.16
2018-12-10T09:26:46.397Z,47.79
2018-12-10T09:29:12.367Z,47.75
2018-12-10T09:31:38.312Z,47.45
2018-12-10T09:34:04.307Z,46.61
2018-12-10T09:36:30.268Z,46.14
2018-12-10T09:38:56.219Z,47.77
2018-12-10T09:41:22.184Z,46.80
2018-12-10T09:43:48.158Z,47.11
2018-12-10T09:46:14.122Z,46.44
2018-12-10T09:48:40.072Z,50.15
2018-12-10T09:51:06.102Z,50.02
2018-12-10T09:53:32.093Z,50.47
2018-12-10T09:55:58.051Z,48.44
2018-12-10T09:58:24.075Z,47.50
2018-12-10T10:00:50.041Z,47.75
2018-12-10T10:03:16.041Z,47.78
2018-12-10T10:05:42.012Z,48.29
2018-12-10T10:08:07.981Z,47.87
2018-12-10T10:10:33.924Z,46.81
2018-12-10T10:12:59.908Z,45.46
2018-12-10T10:15:25.862Z,46.57
2018-12-10T10:17:51.841Z,45.00
2018-12-10T10:20:23.611Z,45.66
2018-12-10T10:22:53.111Z,46.36
2018-12-10T10:25:20.171Z,46.31
2018-12-10T10:27:47.257Z,47.01
2018-12-10T10:30:14.052Z,45.91
2018-12-10T10:32:41.347Z,46.00
2018-12-10T10:35:08.643Z,46.26
2018-12-10T10:37:37.991Z,45.63
2018-12-10T10:40:04.671Z,45.41
2018-12-10T10:42:31.201Z,44.90
2018-12-10T10:44:58.554Z,45.10
2018-12-10T10:47:24.664Z,45.41
2018-12-10T10:49:50.644Z,44.88
2018-12-10T10:52:17.698Z,44.47
2018-12-10T10:54:43.712Z,44.83
2018-12-10T10:57:09.753Z,44.00
2018-12-10T10:59:35.777Z,44.50
2018-12-10T11:02:01.791Z,44.50
2018-12-10T11:04:27.861Z,44.01
2018-12-10T11:06:53.862Z,43.61
2018-12-10T11:09:20.896Z,43.76
2018-12-10T11:11:47.933Z,43.77
2018-12-10T11:14:14.060Z,43.22
2018-12-10T11:16:40.092Z,43.57
2018-12-10T11:19:06.134Z,42.90
2018-12-10T11:21:32.149Z,43.72
2018-12-10T11:23:59.356Z,43.17
2018-12-10T11:26:26.332Z,42.94
2018-12-10T11:28:58.352Z,43.53
2018-12-10T11:31:27.605Z,43.85
2018-12-10T11:33:53.612Z,43.02
2018-12-10T11:36:19.680Z,43.33
2018-12-10T11:38:47.975Z,42.72
2018-12-10T11:41:14.224Z,43.47
2018-12-10T11:43:40.332Z,43.54
2018-12-10T11:46:07.425Z,43.91
2018-12-10T11:48:33.520Z,44.83
2018-12-10T11:50:59.624Z,44.59
2018-12-10T11:53:26.591Z,45.08
2018-12-10T11:55:52.656Z,46.34
2018-12-10T11:58:18.679Z,46.90
2018-12-10T12:00:44.725Z,45.71
2018-12-10T12:03:10.802Z,44.95
2018-12-10T12:05:36.861Z,44.90
2018-12-10T12:08:02.911Z,44.44
2018-12-10T12:10:29.613Z,43.18
2018-12-10T12:12:55.689Z,43.47
2018-12-10T12:15:22.701Z,43.54
2018-12-10T12:17:48.833Z,43.46
2018-12-10T12:20:14.843Z,43.81
2018-12-10T12:22:40.879Z,44.19
2018-12-10T12:25:07.960Z,44.16
2018-12-10T12:27:33.957Z,44.06
2018-12-10T12:30:01.045Z,43.16
2018-12-10T12:32:27.029Z,43.09
2018-12-10T12:34:52.984Z,43.68
2018-12-10T12:37:19.055Z,43.00
2018-12-10T12:39:45.071Z,42.97
2018-12-10T12:42:11.167Z,42.39
2018-12-10T12:44:37.262Z,43.19
2018-12-10T12:47:03.324Z,43.20
2018-12-10T12:49:29.414Z,42.56
2018-12-10T12:51:55.438Z,42.67
2018-12-10T12:54:21.976Z,43.16
2018-12-10T12:56:47.986Z,42.16
2018-12-10T12:59:14.139Z,42.85
2018-12-10T13:01:40.141Z,43.16
2018-12-10T13:04:06.133Z,42.20
2018-12-10T13:06:32.195Z,42.25
2018-12-10T13:08:58.173Z,41.20
2018-12-10T13:11:24.241Z,40.98
2018-12-10T13:13:50.274Z,40.75
2018-12-10T13:16:16.309Z,40.73
2018-12-10T13:18:42.317Z,41.65
2018-12-10T13:21:08.325Z,41.41
2018-12-10T13:23:34.364Z,41.63
2018-12-10T13:26:00.375Z,40.74
2018-12-10T13:28:26.436Z,41.04
2018-12-10T13:30:52.423Z,41.01
2018-12-10T13:33:19.453Z,41.34
2018-12-10T13:35:45.530Z,41.82
2018-12-10T13:38:12.632Z,41.73
2018-12-10T13:40:39.537Z,41.77
2018-12-10T13:43:07.444Z,41.82
2018-12-10T13:45:33.499Z,42.09
2018-12-10T13:47:59.510Z,41.43
2018-12-10T13:50:25.533Z,41.46
2018-12-10T13:52:51.544Z,41.77
2018-12-10T13:55:17.595Z,41.95
2018-12-10T13:57:43.624Z,41.57
2018-12-10T14:00:09.604Z,41.45
2018-12-10T14:02:35.638Z,41.66
2018-12-10T14:05:01.709Z,40.78
2018-12-10T14:07:27.776Z,40.78
2018-12-10T14:09:53.854Z,40.96
2018-12-10T14:12:24.286Z,41.99
2018-12-10T14:14:50.328Z,40.67
2018-12-10T14:17:16.376Z,40.92
2018-12-10T14:19:42.428Z,41.33
2018-12-10T14:22:08.450Z,42.67
2018-12-10T14:24:34.449Z,42.61
2018-12-10T14:27:01.519Z,43.41
2018-12-10T14:29:27.548Z,43.52
2018-12-10T14:31:53.556Z,44.12
2018-12-10T14:34:19.501Z,44.94
2018-12-10T14:36:45.518Z,44.19
2018-12-10T14:39:11.548Z,43.48
2018-12-10T14:41:37.570Z,43.45
2018-12-10T14:44:03.597Z,44.04
2018-12-10T14:46:29.704Z,43.71
2018-12-10T14:48:55.771Z,44.66
2018-12-10T14:51:22.757Z,44.01
2018-12-10T14:53:48.820Z,43.66
2018-12-10T14:56:14.869Z,43.43
2018-12-10T14:58:40.877Z,43.08
2018-12-10T15:01:07.022Z,43.29
2018-12-10T15:03:33.983Z,44.24
2018-12-10T15:06:02.029Z,43.31
2018-12-10T15:08:28.434Z,43.15
2018-12-10T15:10:55.982Z,43.50
2018-12-10T15:13:22.851Z,43.15
2018-12-10T15:15:48.881Z,43.56
2018-12-10T15:18:14.872Z,43.22
2018-12-10T15:20:40.909Z,42.38
2018-12-10T15:23:06.954Z,42.72
2018-12-10T15:25:32.982Z,42.31
2018-12-10T15:28:00.049Z,41.41
2018-12-10T15:30:26.146Z,41.43
2018-12-10T15:32:52.872Z,42.35
2018-12-10T15:35:18.830Z,42.49
2018-12-10T15:37:46.874Z,41.85
2018-12-10T15:40:12.898Z,42.78
2018-12-10T15:42:38.955Z,42.62
2018-12-10T15:45:04.980Z,42.92
2018-12-10T15:47:30.968Z,42.60
2018-12-10T15:49:58.375Z,43.23
2018-12-10T15:52:24.429Z,43.34
2018-12-10T15:54:51.099Z,43.26
2018-12-10T15:57:18.125Z,43.01
2018-12-10T15:59:47.549Z,43.13
2018-12-10T16:02:13.899Z,43.14
2018-12-10T16:04:45.516Z,43.67
2018-12-10T16:07:11.588Z,43.35
2018-12-10T16:09:39.293Z,43.12
2018-12-10T16:12:05.372Z,42.44
2018-12-10T16:14:32.383Z,42.95
2018-12-10T16:17:01.046Z,42.92
2018-12-10T16:19:28.004Z,43.70
2018-12-10T16:21:55.078Z,44.54
2018-12-10T16:24:22.134Z,44.05
2018-12-10T16:29:19.403Z,43.14
2018-12-10T16:31:49.113Z,43.79
2018-12-10T16:34:17.159Z,42.52
2018-12-10T16:36:47.902Z,43.86
2018-12-10T16:39:13.929Z,43.99
2018-12-10T16:41:41.590Z,43.65
2018-12-10T16:44:07.623Z,44.10
2018-12-10T16:49:07.666Z,43.76
2018-12-10T16:56:41.739Z,43.61
2018-12-10T16:59:09.804Z,43.88
2018-12-10T17:06:39.727Z,45.03
2018-12-10T17:09:06.557Z,44.81
2018-12-10T17:11:33.673Z,45.43
2018-12-10T17:16:34.203Z,45.22
2018-12-10T17:21:35.626Z,45.13
2018-12-10T17:24:03.613Z,45.24
2018-12-10T17:26:36.801Z,45.60
2018-12-10T17:29:03.876Z,45.85
2018-12-10T17:31:34.046Z,45.64
2018-12-10T17:34:02.071Z,45.70
2018-12-10T17:36:28.379Z,45.17
2018-12-10T17:38:58.741Z,45.38
2018-12-10T17:43:57.428Z,45.62
2018-12-10T17:46:29.161Z,46.08
2018-12-10T17:48:55.212Z,45.75
2018-12-10T17:51:21.313Z,46.38
2018-12-10T17:53:47.438Z,45.84
2018-12-10T17:56:15.554Z,44.80
2018-12-10T17:58:47.131Z,45.92
2018-12-10T18:01:16.849Z,45.62
2018-12-10T18:08:45.647Z,45.08
2018-12-10T18:11:13.793Z,46.52
2018-12-10T18:13:44.199Z,45.92
2018-12-10T18:16:12.250Z,46.45
2018-12-10T18:21:11.108Z,46.04
2018-12-10T18:28:41.852Z,47.73
2018-12-10T18:36:12.663Z,48.45
2018-12-10T18:38:38.847Z,48.32
2018-12-10T18:41:04.895Z,48.40
2018-12-10T18:43:30.930Z,48.21
2018-12-10T18:48:28.203Z,48.96
2018-12-10T18:50:54.173Z,47.99
2018-12-10T18:53:22.153Z,48.75
2018-12-10T18:55:48.713Z,49.33
2018-12-10T18:58:16.766Z,50.12
2018-12-10T19:00:42.889Z,50.11
2018-12-10T19:03:08.912Z,50.04
2018-12-10T19:05:36.860Z,49.88
2018-12-10T19:08:03.856Z,49.39
2018-12-10T19:10:31.021Z,49.68
2018-12-10T19:12:57.040Z,49.34
2018-12-10T19:15:24.129Z,50.13
2018-12-10T19:17:50.183Z,49.78
2018-12-10T19:20:19.373Z,49.80
2018-12-10T19:22:49.706Z,49.92
2018-12-10T19:25:15.739Z,50.53
2018-12-10T19:27:42.916Z,49.77
2018-12-10T19:30:09.356Z,50.01
2018-12-10T19:35:07.313Z,49.95
2018-12-10T19:37:34.395Z,50.22
2018-12-10T19:42:32.056Z,49.73
2018-12-10T19:44:58.335Z,48.67
2018-12-10T19:47:26.652Z,48.02
2018-12-10T19:49:53.742Z,48.12
2018-12-10T19:52:23.550Z,47.97
2018-12-10T19:59:53.332Z,49.05
2018-12-10T20:02:19.371Z,48.55
2018-12-10T20:04:45.355Z,46.43
2018-12-10T20:09:45.950Z,47.78
2018-12-10T20:12:11.917Z,48.04
2018-12-10T20:14:38.089Z,48.72
2018-12-10T20:17:04.109Z,48.52
2018-12-10T20:19:30.240Z,47.95
2018-12-10T20:21:56.203Z,47.80
2018-12-10T20:31:56.124Z,49.02
2018-12-10T20:34:22.209Z,49.62
2018-12-10T20:36:48.190Z,48.88
2018-12-10T20:39:14.343Z,48.48
2018-12-10T20:41:40.318Z,48.43
2018-12-10T20:44:06.435Z,48.88
2018-12-10T20:46:32.454Z,49.49
2018-12-10T20:48:59.462Z,49.48
2018-12-10T20:51:25.488Z,49.74
2018-12-10T20:58:59.329Z,49.36
2018-12-10T21:01:25.790Z,48.62
2018-12-10T21:06:24.350Z,48.79
2018-12-10T21:08:50.422Z,49.26
2018-12-10T21:11:16.462Z,49.24
2018-12-10T21:13:42.598Z,48.41
2018-12-10T21:26:16.642Z,48.46
2018-12-10T21:28:42.675Z,48.42
2018-12-10T21:31:08.637Z,47.98
2018-12-10T21:33:34.626Z,48.41
2018-12-10T21:36:00.636Z,48.08
2018-12-10T21:38:26.651Z,48.26
2018-12-10T21:40:52.631Z,48.38
2018-12-10T21:43:18.659Z,48.83
2018-12-10T21:45:44.643Z,48.34
2018-12-10T21:48:11.910Z,48.97
2018-12-10T21:50:37.982Z,48.71
2018-12-10T21:53:03.982Z,49.12
2018-12-10T21:55:29.943Z,48.36
2018-12-10T21:57:55.927Z,47.91
2018-12-10T22:00:21.909Z,49.18
2018-12-10T22:02:48.166Z,49.23
2018-12-10T22:05:15.331Z,48.25
2018-12-10T22:07:41.319Z,48.60
2018-12-10T22:10:07.324Z,47.58
2018-12-10T22:12:33.322Z,47.31
2018-12-10T22:14:59.316Z,48.06
2018-12-10T22:17:25.300Z,47.74
2018-12-10T22:19:51.331Z,47.92
2018-12-10T22:22:17.342Z,46.78
2018-12-10T22:24:43.296Z,46.33
2018-12-10T22:27:09.316Z,47.37
2018-12-10T22:29:35.432Z,48.07
2018-12-10T22:32:01.488Z,47.83
2018-12-10T22:36:59.485Z,48.23
2018-12-10T22:39:25.441Z,49.97
2018-12-10T22:41:51.543Z,50.48
2018-12-10T22:44:17.577Z,49.85
2018-12-10T22:46:43.597Z,50.12
2018-12-10T22:49:09.603Z,49.27
2018-12-10T22:51:35.584Z,49.55
2018-12-10T22:54:01.571Z,48.80
2018-12-10T22:56:27.555Z,48.36
2018-12-10T22:58:53.567Z,48.99
2018-12-10T23:01:19.537Z,48.11
2018-12-10T23:03:48.447Z,48.27
2018-12-10T23:06:14.434Z,49.08
2018-12-10T23:08:40.414Z,48.70
2018-12-10T23:11:06.391Z,49.29
2018-12-10T23:13:32.376Z,48.73
2018-12-10T23:15:58.356Z,48.20
2018-12-10T23:18:24.365Z,49.00
2018-12-10T23:20:50.361Z,49.06
2018-12-10T23:23:16.334Z,49.24
2018-12-10T23:25:42.307Z,49.83
2018-12-10T23:28:08.343Z,49.82
2018-12-10T23:30:34.337Z,50.00
2018-12-10T23:33:00.331Z,49.93
2018-12-10T23:35:26.328Z,50.04
2018-12-10T23:37:52.354Z,48.78
2018-12-10T23:40:18.300Z,48.34
2018-12-10T23:42:44.261Z,49.54
2018-12-10T23:45:10.217Z,49.47
2018-12-10T23:47:36.194Z,50.66
2018-12-10T23:50:02.196Z,49.97
2018-12-10T23:52:28.290Z,49.52
2018-12-10T23:54:54.267Z,50.53
2018-12-10T23:57:20.254Z,50.43
2018-12-10T23:59:46.207Z,51.07
